Time;durP1;ratioP1;P1;durP2;ratioP2;P2;SDS_P1;SDS_P2;PMS_P1;PMS_P2;Temp;Humidity;BMP_temperature;BMP_pressure;BME280_temperature;BME280_humidity;BME280_pressure;Samples;Min_cycle;Max_cycle;Signal;HPM_P1;HPM_P2
2022/01/31 00:01:58;;;;;;;2.60;1.40;;;4.50;99.90;;;;;;5012497;28;20195;-72
2022/01/31 00:04:24;;;;;;;1.73;1.23;;;4.50;99.90;;;;;;5012026;28;20188;-76
2022/01/31 00:06:49;;;;;;;5.60;1.37;;;4.40;99.90;;;;;;5012314;28;20399;-74
2022/01/31 00:09:17;;;;;;;2.00;1.07;;;4.40;99.90;;;;;;5012188;28;20222;-73
2022/01/31 00:11:52;;;;;;;5.13;1.37;;;4.40;99.90;;;;;;5011887;28;20615;-73
2022/01/31 00:14:31;;;;;;;5.77;1.37;;;4.40;99.90;;;;;;5012010;28;20769;-71
2022/01/31 00:16:56;;;;;;;1.40;1.27;;;4.40;99.90;;;;;;5011805;28;20399;-72
2022/01/31 00:19:22;;;;;;;1.30;1.03;;;4.40;99.90;;;;;;5011618;28;20441;-74
2022/01/31 00:21:47;;;;;;;5.10;3.10;;;4.40;99.90;;;;;;5011717;28;20279;-73
2022/01/31 00:24:13;;;;;;;1.43;0.87;;;4.40;99.90;;;;;;5011711;28;20179;-74
2022/01/31 00:26:38;;;;;;;3.57;1.80;;;4.40;99.90;;;;;;5011851;28;20255;-72
2022/01/31 00:29:04;;;;;;;1.23;1.10;;;4.40;99.90;;;;;;5011561;28;20207;-72
2022/01/31 00:31:30;;;;;;;2.07;1.27;;;4.40;99.90;;;;;;5010230;28;20689;-73
2022/01/31 00:33:56;;;;;;;6.97;2.00;;;4.40;99.90;;;;;;5011661;28;20642;-73
2022/01/31 00:36:21;;;;;;;7.30;3.30;;;4.40;99.90;;;;;;5015215;28;20448;-73
2022/01/31 00:38:47;;;;;;;1.80;1.30;;;4.40;99.90;;;;;;5015474;28;20168;-73
2022/01/31 00:41:12;;;;;;;6.27;1.40;;;4.40;99.90;;;;;;5015487;28;20250;-73
2022/01/31 00:43:38;;;;;;;5.40;2.50;;;4.30;99.90;;;;;;5016051;28;20198;-73
2022/01/31 00:46:11;;;;;;;8.97;1.20;;;4.40;99.90;;;;;;5017028;28;20582;-73
2022/01/31 00:48:42;;;;;;;17.47;3.17;;;4.40;99.90;;;;;;5016084;28;20580;-73
2022/01/31 00:51:08;;;;;;;6.07;1.40;;;4.40;99.90;;;;;;5015491;28;20509;-73
2022/01/31 00:53:34;;;;;;;5.60;1.93;;;4.20;99.90;;;;;;5015211;28;20526;-73
2022/01/31 00:55:59;;;;;;;1.83;1.73;;;4.20;99.90;;;;;;5015136;28;20443;-73
2022/01/31 00:58:25;;;;;;;5.33;2.60;;;4.10;99.90;;;;;;5015215;28;20219;-74
2022/01/31 01:00:50;;;;;;;9.17;2.17;;;4.20;99.90;;;;;;5014707;28;20620;-73
2022/01/31 01:03:16;;;;;;;18.13;2.27;;;4.10;99.90;;;;;;5015010;28;20207;-73
2022/01/31 01:05:42;;;;;;;6.37;3.30;;;4.10;99.90;;;;;;5015135;28;20196;-73
2022/01/31 01:08:07;;;;;;;5.20;3.37;;;4.20;99.90;;;;;;5015053;28;20175;-73
2022/01/31 01:10:33;;;;;;;10.27;1.90;;;4.10;99.90;;;;;;5014925;28;20892;-72
2022/01/31 01:12:59;;;;;;;0.90;0.70;;;3.90;99.90;;;;;;5014746;28;20195;-73
2022/01/31 01:15:24;;;;;;;6.50;1.90;;;3.80;99.90;;;;;;5013581;28;20168;-72
2022/01/31 01:17:50;;;;;;;2.20;1.67;;;3.60;99.90;;;;;;5014897;28;20176;-72
2022/01/31 01:20:16;;;;;;;2.73;2.30;;;3.60;99.90;;;;;;5013738;28;20177;-73
2022/01/31 01:22:43;;;;;;;2.30;1.47;;;3.50;99.90;;;;;;5014786;28;20263;-73
2022/01/31 01:25:10;;;;;;;3.43;1.73;;;3.50;99.90;;;;;;5013485;28;20419;-73
2022/01/31 01:27:35;;;;;;;4.60;1.97;;;3.60;99.90;;;;;;5014848;28;20414;-73
2022/01/31 01:30:02;;;;;;;1.03;1.00;;;3.60;99.90;;;;;;5014243;28;20969;-72
2022/01/31 01:32:32;;;;;;;6.73;3.10;;;3.60;99.90;;;;;;5014406;28;20192;-72
2022/01/31 01:35:02;;;;;;;5.00;2.07;;;3.60;99.90;;;;;;5014644;28;20399;-73
2022/01/31 01:37:28;;;;;;;3.93;2.47;;;3.60;99.90;;;;;;5015030;28;20411;-73
2022/01/31 01:39:53;;;;;;;3.13;2.10;;;3.60;99.90;;;;;;5015485;28;20457;-72
2022/01/31 01:42:19;;;;;;;4.33;1.10;;;3.60;99.90;;;;;;5015367;28;20202;-73
2022/01/31 01:44:48;;;;;;;3.03;2.57;;;3.60;99.90;;;;;;5014663;28;20180;-73
2022/01/31 01:47:18;;;;;;;2.50;0.90;;;3.60;99.90;;;;;;5013433;28;20247;-73
2022/01/31 01:49:45;;;;;;;5.70;2.30;;;3.70;99.90;;;;;;5014210;28;20415;-73
2022/01/31 01:52:11;;;;;;;1.40;1.30;;;3.60;99.90;;;;;;5035594;23;20463;-72
2022/01/31 01:54:37;;;;;;;3.70;1.93;;;3.70;99.90;;;;;;5013601;28;20514;-73
2022/01/31 01:57:03;;;;;;;4.20;1.93;;;3.70;99.90;;;;;;5013727;28;20490;-73
2022/01/31 01:59:32;;;;;;;3.07;2.37;;;3.60;99.90;;;;;;5012429;28;20260;-73
2022/01/31 02:01:58;;;;;;;1.10;1.00;;;3.60;99.90;;;;;;5013536;28;20410;-72
2022/01/31 02:04:25;;;;;;;6.37;1.70;;;3.70;99.90;;;;;;5013675;28;20407;-73
2022/01/31 02:06:50;;;;;;;2.40;2.20;;;3.70;99.90;;;;;;5013448;28;20169;-73
2022/01/31 02:09:21;;;;;;;9.40;1.20;;;3.70;99.90;;;;;;5013333;28;20892;-73
2022/01/31 02:11:47;;;;;;;2.83;1.53;;;3.70;99.90;;;;;;5013428;28;20200;-72
2022/01/31 02:14:12;;;;;;;6.27;1.70;;;3.70;99.90;;;;;;5013263;28;20437;-73
2022/01/31 02:16:38;;;;;;;2.93;1.40;;;3.70;99.90;;;;;;5013431;28;20555;-72
2022/01/31 02:19:03;;;;;;;6.13;1.60;;;3.70;99.90;;;;;;5013299;28;20184;-72
2022/01/31 02:21:29;;;;;;;2.50;1.50;;;3.80;99.90;;;;;;5013289;28;20172;-72
2022/01/31 02:23:55;;;;;;;4.40;1.57;;;3.80;99.90;;;;;;5013056;28;20215;-72
2022/01/31 02:26:20;;;;;;;5.20;1.57;;;3.80;99.90;;;;;;5013257;28;20545;-72
2022/01/31 02:28:46;;;;;;;9.40;3.73;;;3.80;99.90;;;;;;5012879;28;20414;-72
2022/01/31 02:31:11;;;;;;;2.10;1.40;;;3.80;99.90;;;;;;5012997;28;20216;-72
2022/01/31 02:33:37;;;;;;;2.00;1.20;;;3.80;99.90;;;;;;5012821;28;20188;-72
2022/01/31 02:36:05;;;;;;;4.03;1.60;;;3.80;99.90;;;;;;5012947;28;20192;-72
2022/01/31 02:38:31;;;;;;;6.50;2.40;;;3.70;99.90;;;;;;5012775;28;20562;-72
2022/01/31 02:40:57;;;;;;;6.60;3.33;;;3.70;99.90;;;;;;5011411;28;20446;-72
2022/01/31 02:43:28;;;;;;;2.73;2.60;;;3.80;99.90;;;;;;5012568;28;20439;-72
2022/01/31 02:45:54;;;;;;;1.90;1.30;;;3.80;99.90;;;;;;5013052;28;20407;-73
2022/01/31 02:48:23;;;;;;;6.63;1.53;;;3.80;99.90;;;;;;5013180;28;20407;-73
2022/01/31 02:50:49;;;;;;;11.27;1.73;;;3.80;99.90;;;;;;5012567;28;20637;-73
2022/01/31 02:53:25;;;;;;;7.37;3.40;;;3.80;99.90;;;;;;5012132;28;20466;-72
2022/01/31 02:55:53;;;;;;;4.23;1.87;;;3.70;99.90;;;;;;5012668;28;20407;-73
2022/01/31 02:58:19;;;;;;;2.00;1.80;;;3.70;99.90;;;;;;5010949;28;20414;-73
2022/01/31 03:00:45;;;;;;;4.23;2.43;;;3.70;99.90;;;;;;5011156;28;20417;-73
2022/01/31 03:03:10;;;;;;;4.40;1.97;;;3.70;99.90;;;;;;5012247;28;20518;-73
2022/01/31 03:05:36;;;;;;;2.10;1.30;;;3.70;99.90;;;;;;5012349;28;20619;-73
2022/01/31 03:08:03;;;;;;;11.33;1.93;;;3.70;99.90;;;;;;5012443;28;20631;-73
2022/01/31 03:10:29;;;;;;;9.50;1.90;;;3.60;99.90;;;;;;5012122;28;20666;-73
2022/01/31 03:12:54;;;;;;;5.77;1.50;;;3.70;99.90;;;;;;5012421;28;20430;-73
2022/01/31 03:15:20;;;;;;;4.10;1.70;;;3.70;99.90;;;;;;5012336;28;20164;-73
2022/01/31 03:17:49;;;;;;;1.73;1.60;;;3.70;99.90;;;;;;5012377;28;20516;-73
2022/01/31 03:20:17;;;;;;;6.90;1.80;;;3.70;99.90;;;;;;5012124;28;20230;-73
2022/01/31 03:22:43;;;;;;;9.57;2.23;;;3.70;99.90;;;;;;5012254;28;20434;-73
2022/01/31 03:25:09;;;;;;;0.90;0.90;;;3.70;99.90;;;;;;5012247;28;20787;-73
2022/01/31 03:27:34;;;;;;;1.97;1.37;;;3.70;99.90;;;;;;5012151;28;20176;-73
2022/01/31 03:30:00;;;;;;;4.10;0.97;;;3.80;99.90;;;;;;5010679;28;20203;-73
2022/01/31 03:32:25;;;;;;;4.10;1.10;;;3.70;99.90;;;;;;5012046;28;20215;-73
2022/01/31 03:34:51;;;;;;;12.93;2.87;;;3.70;99.90;;;;;;5012130;28;20623;-73
2022/01/31 03:37:16;;;;;;;3.23;1.87;;;3.70;99.90;;;;;;5012011;28;20230;-73
2022/01/31 03:39:42;;;;;;;2.53;2.10;;;3.70;99.90;;;;;;5011857;28;20173;-73
2022/01/31 03:42:07;;;;;;;6.50;2.07;;;3.70;99.90;;;;;;5012183;28;20211;-73
2022/01/31 03:44:33;;;;;;;3.03;1.20;;;3.70;99.90;;;;;;5011931;28;20183;-73
2022/01/31 03:46:58;;;;;;;6.60;2.13;;;3.70;99.90;;;;;;5011966;28;20188;-73
2022/01/31 03:49:24;;;;;;;1.93;1.83;;;3.70;99.90;;;;;;5011789;28;20252;-73
2022/01/31 03:51:50;;;;;;;1.70;1.10;;;3.70;99.90;;;;;;5011751;28;20199;-73
2022/01/31 03:54:15;;;;;;;5.23;1.77;;;3.70;99.90;;;;;;5011660;28;20924;-73
2022/01/31 03:56:41;;;;;;;4.63;1.20;;;3.70;99.90;;;;;;5011906;28;20164;-73
2022/01/31 03:59:06;;;;;;;2.20;1.27;;;3.60;99.90;;;;;;5011838;28;20168;-73
2022/01/31 04:01:32;;;;;;;4.00;1.77;;;3.60;99.90;;;;;;5011914;28;20172;-73
2022/01/31 04:03:57;;;;;;;6.83;1.67;;;3.60;99.90;;;;;;5011765;28;20203;-73
2022/01/31 04:06:23;;;;;;;1.53;1.40;;;3.60;99.90;;;;;;5011702;28;20674;-73
2022/01/31 04:08:50;;;;;;;9.03;1.57;;;3.60;99.90;;;;;;5011701;28;20564;-73
2022/01/31 04:11:15;;;;;;;5.90;1.83;;;3.60;99.90;;;;;;5015048;28;20537;-73
2022/01/31 04:13:41;;;;;;;1.63;1.53;;;3.60;99.90;;;;;;5015850;28;20984;-73
2022/01/31 04:16:06;;;;;;;3.80;1.20;;;3.60;99.90;;;;;;5015786;28;20244;-73
2022/01/31 04:18:32;;;;;;;7.63;1.47;;;3.50;99.90;;;;;;5015964;28;20168;-73
2022/01/31 04:20:57;;;;;;;1.97;1.30;;;3.50;99.90;;;;;;5015921;28;20175;-73
2022/01/31 04:23:27;;;;;;;3.33;1.20;;;3.50;99.90;;;;;;5015804;28;20192;-74
2022/01/31 04:25:55;;;;;;;6.37;1.37;;;3.50;99.90;;;;;;5016013;28;20168;-73
2022/01/31 04:28:31;;;;;;;2.70;1.80;;;3.50;99.90;;;;;;5015694;28;20480;-74
2022/01/31 04:31:00;;;;;;;8.73;1.90;;;3.50;99.90;;;;;;5015657;28;20454;-73
2022/01/31 04:33:28;;;;;;;5.80;1.90;;;3.50;99.90;;;;;;5015615;28;20435;-74
2022/01/31 04:35:55;;;;;;;6.87;2.07;;;3.50;99.90;;;;;;5015694;28;20410;-74
2022/01/31 04:38:21;;;;;;;7.47;1.37;;;3.40;99.90;;;;;;5027459;28;20415;-74
2022/01/31 04:40:47;;;;;;;4.33;1.43;;;3.40;99.90;;;;;;5036295;28;20411;-74
2022/01/31 04:43:13;;;;;;;2.03;1.33;;;3.40;99.90;;;;;;5035773;28;20434;-74
2022/01/31 04:45:46;;;;;;;4.40;2.20;;;3.40;99.90;;;;;;5035404;28;20199;-74
2022/01/31 04:48:12;;;;;;;9.97;1.77;;;3.40;99.90;;;;;;5033713;28;20441;-74
2022/01/31 04:50:37;;;;;;;2.30;1.20;;;3.40;99.90;;;;;;5033637;28;20454;-73
2022/01/31 04:53:02;;;;;;;3.80;1.43;;;3.40;99.90;;;;;;5033374;28;20263;-74
2022/01/31 04:55:29;;;;;;;1.70;1.60;;;3.40;99.90;;;;;;5023495;28;20176;-73
2022/01/31 04:57:55;;;;;;;2.03;1.80;;;3.40;99.90;;;;;;5017371;28;20179;-73
2022/01/31 05:00:20;;;;;;;2.00;1.40;;;3.40;99.90;;;;;;5017484;28;20419;-74
2022/01/31 05:02:46;;;;;;;6.43;2.03;;;3.40;99.90;;;;;;5015565;28;20562;-74
2022/01/31 05:05:11;;;;;;;1.20;0.80;;;3.40;99.90;;;;;;5013716;28;20184;-74
2022/01/31 05:07:37;;;;;;;3.10;1.43;;;3.40;99.90;;;;;;5014796;28;20589;-73
2022/01/31 05:10:03;;;;;;;5.70;1.53;;;3.40;99.90;;;;;;5013047;28;20196;-72
2022/01/31 05:12:28;;;;;;;4.70;1.40;;;3.40;99.90;;;;;;5014475;28;20196;-72
2022/01/31 05:14:54;;;;;;;8.63;1.83;;;3.40;99.90;;;;;;5014597;28;20756;-72
2022/01/31 05:17:19;;;;;;;2.23;1.50;;;3.40;99.90;;;;;;5013188;28;20184;-72
2022/01/31 05:19:44;;;;;;;4.50;2.07;;;3.40;99.90;;;;;;5013033;28;20271;-72
2022/01/31 05:22:10;;;;;;;2.80;1.60;;;3.40;99.90;;;;;;5014293;28;20172;-73
2022/01/31 05:24:35;;;;;;;5.47;2.80;;;3.40;99.90;;;;;;5014410;28;20574;-73
2022/01/31 05:27:01;;;;;;;3.10;2.23;;;3.40;99.90;;;;;;5014332;28;20176;-73
2022/01/31 05:29:26;;;;;;;8.20;2.00;;;3.40;99.90;;;;;;5014205;28;20202;-73
2022/01/31 05:31:54;;;;;;;2.20;1.00;;;3.40;99.90;;;;;;5014209;28;20283;-73
2022/01/31 05:34:20;;;;;;;7.53;1.40;;;3.30;99.90;;;;;;5014254;28;20164;-73
2022/01/31 05:36:46;;;;;;;4.77;2.03;;;3.40;99.90;;;;;;5014198;28;20415;-73
2022/01/31 05:39:12;;;;;;;1.53;1.40;;;3.40;99.90;;;;;;5014197;28;20177;-73
2022/01/31 05:41:37;;;;;;;2.33;1.10;;;3.40;99.90;;;;;;5013736;28;20503;-73
2022/01/31 05:44:03;;;;;;;6.73;2.60;;;3.30;99.90;;;;;;5014064;28;20192;-74
2022/01/31 05:46:28;;;;;;;8.97;2.30;;;3.40;99.90;;;;;;5014072;28;20234;-73
2022/01/31 05:48:54;;;;;;;8.40;2.17;;;3.30;99.90;;;;;;5014020;28;20169;-73
2022/01/31 05:51:22;;;;;;;5.10;1.37;;;3.30;99.90;;;;;;5013869;28;20279;-74
2022/01/31 05:53:49;;;;;;;2.37;1.20;;;3.30;99.90;;;;;;5012379;28;20204;-73
2022/01/31 05:56:17;;;;;;;2.03;1.83;;;3.30;99.90;;;;;;5013834;28;20823;-74
2022/01/31 05:58:43;;;;;;;4.57;2.10;;;3.30;99.90;;;;;;5014116;28;20410;-74
2022/01/31 06:01:10;;;;;;;5.63;3.07;;;3.30;99.90;;;;;;5013840;28;20406;-74
2022/01/31 06:03:35;;;;;;;7.20;1.27;;;3.30;99.90;;;;;;5011717;28;20455;-73
2022/01/31 06:06:01;;;;;;;8.33;2.73;;;3.30;99.90;;;;;;5013521;28;20466;-72
2022/01/31 06:08:28;;;;;;;3.13;2.87;;;3.30;99.90;;;;;;5012349;28;20263;-72
2022/01/31 06:10:54;;;;;;;10.70;2.10;;;3.30;99.90;;;;;;5013576;28;20516;-73
2022/01/31 06:13:23;;;;;;;7.80;2.13;;;3.30;99.90;;;;;;5011964;28;20439;-73
2022/01/31 06:15:50;;;;;;;2.30;1.10;;;3.30;99.90;;;;;;5013644;28;20247;-73
2022/01/31 06:18:15;;;;;;;4.30;1.50;;;3.30;99.90;;;;;;5013601;28;20870;-73
2022/01/31 06:20:41;;;;;;;7.63;3.00;;;3.30;99.90;;;;;;5013194;28;20423;-74
2022/01/31 06:23:07;;;;;;;5.27;2.60;;;3.30;99.90;;;;;;5013209;28;20203;-74
2022/01/31 06:25:34;;;;;;;5.40;2.60;;;3.30;99.90;;;;;;5013415;28;20186;-74
2022/01/31 06:27:59;;;;;;;15.57;2.47;;;3.30;99.90;;;;;;5013430;28;20160;-74
2022/01/31 06:30:25;;;;;;;9.03;1.60;;;3.30;99.90;;;;;;5013085;28;20446;-73
2022/01/31 06:32:53;;;;;;;3.43;1.47;;;3.30;99.90;;;;;;5012914;28;20258;-73
2022/01/31 06:35:18;;;;;;;8.57;1.70;;;3.20;99.90;;;;;;5012994;28;20465;-73
2022/01/31 06:37:44;;;;;;;2.20;1.53;;;3.20;99.90;;;;;;5023807;28;20770;-73
2022/01/31 06:40:09;;;;;;;1.80;1.57;;;3.20;99.90;;;;;;5032883;28;20591;-73
2022/01/31 06:42:35;;;;;;;1.57;1.40;;;3.10;99.90;;;;;;5032789;28;20199;-73
2022/01/31 06:45:01;;;;;;;3.97;1.87;;;3.20;99.90;;;;;;5032771;28;20182;-73
2022/01/31 06:47:27;;;;;;;5.13;1.07;;;3.20;99.90;;;;;;5032593;28;20163;-73
2022/01/31 06:49:52;;;;;;;6.53;3.00;;;3.50;99.90;;;;;;5030775;28;20410;-73
2022/01/31 06:52:18;;;;;;;6.80;1.50;;;3.40;99.90;;;;;;5012376;28;20219;-73
2022/01/31 06:54:44;;;;;;;6.17;1.70;;;3.40;99.90;;;;;;5012814;28;20169;-73
2022/01/31 06:57:10;;;;;;;6.23;1.30;;;3.40;99.90;;;;;;5012820;28;20160;-73
2022/01/31 06:59:35;;;;;;;10.37;3.13;;;3.40;99.90;;;;;;5013279;28;20454;-73
2022/01/31 07:02:01;;;;;;;5.07;2.77;;;3.40;99.90;;;;;;5012417;28;20215;-73
2022/01/31 07:04:26;;;;;;;2.47;1.83;;;3.30;99.90;;;;;;5012592;28;20176;-73
2022/01/31 07:06:52;;;;;;;6.73;2.57;;;3.40;99.90;;;;;;5012486;28;20183;-73
2022/01/31 07:09:17;;;;;;;6.00;1.70;;;3.50;99.90;;;;;;5012617;28;20531;-73
2022/01/31 07:11:43;;;;;;;7.73;1.83;;;3.40;99.90;;;;;;5012043;28;20204;-73
2022/01/31 07:14:30;;;;;;;4.83;2.67;;;3.40;99.90;;;;;;5012380;28;20195;-73
2022/01/31 07:16:54;;;;;;;7.10;2.30;;;3.40;99.90;;;;;;5012271;28;20795;-73
2022/01/31 07:19:23;;;;;;;7.03;2.00;;;3.30;99.90;;;;;;5012179;28;20466;-73
2022/01/31 07:21:50;;;;;;;4.37;2.20;;;3.30;99.90;;;;;;5012202;28;20195;-73
2022/01/31 07:24:44;;;;;;;4.10;2.07;;;3.30;99.90;;;;;;5012210;28;20431;-73
2022/01/31 07:27:10;;;;;;;2.03;1.30;;;3.30;99.90;;;;;;5012356;28;20786;-73
2022/01/31 07:29:35;;;;;;;5.33;2.17;;;3.30;99.90;;;;;;5012254;28;20467;-73
2022/01/31 07:32:01;;;;;;;8.03;1.90;;;3.20;99.90;;;;;;5011936;28;20211;-72
2022/01/31 07:34:27;;;;;;;5.40;1.33;;;3.20;99.90;;;;;;5012179;28;20556;-73
2022/01/31 07:36:53;;;;;;;1.47;1.37;;;3.20;99.90;;;;;;5012184;28;20423;-73
2022/01/31 07:39:19;;;;;;;3.53;1.93;;;3.20;99.90;;;;;;5011859;28;20172;-73
2022/01/31 07:41:47;;;;;;;7.17;1.97;;;3.30;99.90;;;;;;5010732;28;20415;-73
2022/01/31 07:44:13;;;;;;;1.77;1.33;;;3.20;99.90;;;;;;5011172;28;20443;-73
2022/01/31 07:46:39;;;;;;;2.30;1.40;;;3.30;99.90;;;;;;5012162;28;20468;-72
2022/01/31 07:49:05;;;;;;;1.63;1.50;;;3.30;99.90;;;;;;5011809;28;20180;-73
2022/01/31 07:51:31;;;;;;;3.73;2.03;;;3.30;99.90;;;;;;5011783;28;20546;-73
2022/01/31 07:53:57;;;;;;;2.50;1.57;;;3.30;99.90;;;;;;5011790;28;20470;-74
2022/01/31 07:56:22;;;;;;;7.83;1.93;;;3.30;99.90;;;;;;5012225;28;20908;-74
2022/01/31 07:58:48;;;;;;;4.90;3.00;;;3.30;99.90;;;;;;5011795;28;20553;-76
2022/01/31 08:01:14;;;;;;;5.40;1.53;;;3.30;99.90;;;;;;5012180;28;20915;-73
2022/01/31 08:03:40;;;;;;;4.27;2.10;;;3.30;99.90;;;;;;5013358;28;20209;-74
2022/01/31 08:06:06;;;;;;;2.43;2.23;;;3.30;99.90;;;;;;5012212;28;20446;-74
2022/01/31 08:08:34;;;;;;;5.70;1.83;;;3.30;99.90;;;;;;5011871;28;20427;-74
2022/01/31 08:11:01;;;;;;;1.63;1.50;;;3.30;99.90;;;;;;5010444;28;20964;-75
2022/01/31 08:13:26;;;;;;;8.20;2.60;;;3.40;99.90;;;;;;5010199;28;20446;-74
2022/01/31 08:18:36;;;;;;;7.23;1.83;;;3.40;99.90;;;;;;5012191;28;20184;-73
2022/01/31 08:21:05;;;;;;;6.20;2.63;;;3.40;99.90;;;;;;5010516;28;20481;-72
2022/01/31 08:23:31;;;;;;;3.97;2.10;;;3.40;99.90;;;;;;5010343;28;20452;-73
2022/01/31 08:25:59;;;;;;;10.47;1.63;;;3.30;99.90;;;;;;5011744;28;20830;-73
2022/01/31 08:28:36;;;;;;;3.57;1.63;;;3.30;99.90;;;;;;5011959;28;20418;-75
2022/01/31 08:31:07;;;;;;;7.77;2.60;;;3.40;99.90;;;;;;5011764;28;20525;-75
2022/01/31 08:36:08;;;;;;;6.00;2.07;;;3.40;99.90;;;;;;5011900;28;20549;-74
2022/01/31 08:38:36;;;;;;;3.50;1.17;;;3.40;99.90;;;;;;5011443;28;20453;-73
2022/01/31 08:41:02;;;;;;;7.13;1.83;;;3.40;99.90;;;;;;5011736;28;20461;-73
2022/01/31 08:43:28;;;;;;;6.83;2.43;;;3.50;99.90;;;;;;5011693;28;20423;-73
2022/01/31 08:45:55;;;;;;;4.60;1.77;;;3.60;99.90;;;;;;5010367;28;20422;-75
2022/01/31 08:48:21;;;;;;;8.70;1.97;;;3.70;99.90;;;;;;5011319;28;20226;-73
2022/01/31 08:50:47;;;;;;;23.17;3.33;;;3.60;99.90;;;;;;5011287;28;20999;-74
2022/01/31 08:53:12;;;;;;;4.13;2.20;;;3.70;99.90;;;;;;5011232;28;20455;-75
2022/01/31 08:55:44;;;;;;;7.53;2.33;;;3.70;99.90;;;;;;5012387;28;20165;-75
2022/01/31 08:58:10;;;;;;;3.93;3.50;;;3.80;99.90;;;;;;5015014;28;20485;-74
2022/01/31 09:00:36;;;;;;;1.20;1.10;;;3.90;99.90;;;;;;5015107;28;20465;-73
2022/01/31 09:03:20;;;;;;;2.40;1.73;;;3.90;99.90;;;;;;5015226;28;20514;-73
2022/01/31 09:05:45;;;;;;;4.40;1.70;;;3.90;99.90;;;;;;5015015;28;20421;-74
2022/01/31 09:08:11;;;;;;;11.53;2.07;;;4.00;99.90;;;;;;5015605;28;20411;-73
2022/01/31 09:10:36;;;;;;;2.07;1.80;;;4.00;99.90;;;;;;5014922;28;20195;-73
2022/01/31 09:13:02;;;;;;;4.23;2.37;;;4.10;99.90;;;;;;5014926;28;20195;-73
2022/01/31 09:15:28;;;;;;;5.83;2.20;;;3.90;99.90;;;;;;5015170;28;20172;-73
2022/01/31 09:17:53;;;;;;;2.60;1.37;;;4.00;99.90;;;;;;5015505;28;20173;-73
2022/01/31 09:20:19;;;;;;;3.83;3.63;;;4.10;99.90;;;;;;5015523;28;20199;-74
2022/01/31 09:22:45;;;;;;;1.93;1.80;;;4.10;99.90;;;;;;5014936;28;20697;-74
2022/01/31 09:25:14;;;;;;;2.70;1.30;;;4.30;99.90;;;;;;5015260;28;20490;-73
2022/01/31 09:27:39;;;;;;;3.73;2.43;;;4.30;99.90;;;;;;5015447;28;20331;-74
2022/01/31 09:30:07;;;;;;;10.53;2.67;;;4.30;99.90;;;;;;5014965;28;20451;-74
2022/01/31 09:32:33;;;;;;;10.30;3.40;;;4.30;99.90;;;;;;5014764;28;20602;-73
2022/01/31 09:34:58;;;;;;;2.27;2.07;;;4.40;99.90;;;;;;5014600;28;20506;-73
2022/01/31 09:37:24;;;;;;;4.13;2.90;;;4.40;99.90;;;;;;5014890;28;20169;-73
2022/01/31 09:39:51;;;;;;;1.93;1.67;;;4.40;99.90;;;;;;5015034;28;20250;-72
2022/01/31 09:42:28;;;;;;;4.07;2.27;;;4.40;99.90;;;;;;5014720;28;20192;-73
2022/01/31 09:48:32;;;;;;;4.10;1.70;;;4.50;99.90;;;;;;5014446;28;20936;-73
2022/01/31 09:50:12;;;;;;;5.33;1.80;;;4.50;99.90;;;;;;5013975;28;20829;-73
2022/01/31 09:52:37;;;;;;;5.43;1.83;;;4.50;99.90;;;;;;5014386;28;20454;-72
2022/01/31 09:55:04;;;;;;;2.37;1.57;;;4.60;99.90;;;;;;5014706;28;20407;-73
2022/01/31 09:57:29;;;;;;;9.60;2.20;;;4.40;99.90;;;;;;5014310;28;20259;-73
2022/01/31 09:59:55;;;;;;;2.90;2.70;;;4.50;99.90;;;;;;5014357;28;20952;-73
2022/01/31 10:02:20;;;;;;;13.83;2.30;;;4.60;99.90;;;;;;5014905;28;20188;-73
2022/01/31 10:04:48;;;;;;;5.83;2.70;;;4.60;99.90;;;;;;5023985;28;20198;-74
2022/01/31 10:07:14;;;;;;;3.40;2.40;;;4.60;99.90;;;;;;5032166;28;20187;-73
2022/01/31 10:09:43;;;;;;;11.53;2.80;;;4.50;99.90;;;;;;5032314;28;20404;-74
2022/01/31 10:17:43;;;;;;;4.10;2.23;;;4.60;99.90;;;;;;5036191;28;20927;-73
2022/01/31 10:20:24;;;;;;;1.83;1.73;;;4.60;99.90;;;;;;5035015;28;20423;-73
2022/01/31 10:22:50;;;;;;;7.60;2.33;;;4.50;99.90;;;;;;5031727;28;20435;-74
2022/01/31 10:25:18;;;;;;;2.60;2.40;;;4.60;99.90;;;;;;5034714;28;20433;-74
2022/01/31 10:27:49;;;;;;;3.60;2.03;;;4.70;99.90;;;;;;5020380;28;20172;-73
2022/01/31 10:30:18;;;;;;;8.10;1.80;;;4.70;99.90;;;;;;5014140;28;20450;-73
2022/01/31 10:32:47;;;;;;;2.80;1.47;;;4.60;99.90;;;;;;5014103;28;20842;-73
2022/01/31 10:35:16;;;;;;;2.87;2.33;;;4.60;99.90;;;;;;5014188;28;20408;-73
2022/01/31 10:37:42;;;;;;;2.57;2.37;;;4.50;99.90;;;;;;5037272;23;20410;-72
2022/01/31 10:46:06;;;;;;;3.37;1.80;;;4.60;99.90;;;;;;5033571;28;20406;-72
2022/01/31 10:54:12;;;;;;;5.80;2.60;;;4.80;99.90;;;;;;5012538;28;20446;-74
2022/01/31 10:56:54;;;;;;;2.40;2.10;;;5.00;99.90;;;;;;5013262;28;20434;-74
2022/01/31 10:59:41;;;;;;;7.57;5.00;;;4.80;99.90;;;;;;5012962;28;20842;-72
2022/01/31 11:02:15;;;;;;;3.27;1.83;;;5.00;99.90;;;;;;5001231;28;20419;-73
2022/01/31 11:04:42;;;;;;;4.60;2.00;;;4.80;99.90;;;;;;4993550;28;20404;-72
2022/01/31 11:07:10;;;;;;;5.30;2.93;;;5.00;99.90;;;;;;5009171;28;20426;-71
2022/01/31 11:09:37;;;;;;;9.30;4.40;;;4.90;99.90;;;;;;5012898;28;20433;-72
2022/01/31 11:12:04;;;;;;;3.33;2.70;;;5.00;99.90;;;;;;5012452;28;20520;-72
2022/01/31 11:14:29;;;;;;;6.83;2.60;;;5.20;99.90;;;;;;5013042;28;20790;-72
2022/01/31 11:16:56;;;;;;;9.53;3.33;;;5.10;99.90;;;;;;5005256;28;20440;-72
2022/01/31 11:19:30;;;;;;;5.10;3.00;;;5.20;99.90;;;;;;4995241;28;20193;-71
2022/01/31 11:22:00;;;;;;;2.33;1.90;;;5.40;99.90;;;;;;4995129;28;20438;-73
2022/01/31 11:24:31;;;;;;;10.90;3.50;;;5.30;99.90;;;;;;4994563;28;20950;-72
2022/01/31 11:27:04;;;;;;;3.27;1.47;;;5.50;99.90;;;;;;5002666;28;20403;-72
2022/01/31 11:29:32;;;;;;;6.63;3.27;;;5.20;99.90;;;;;;5004736;28;20795;-72
2022/01/31 11:32:00;;;;;;;8.83;2.30;;;5.20;99.90;;;;;;5004583;28;20486;-73
2022/01/31 11:34:26;;;;;;;1.87;1.50;;;5.40;99.90;;;;;;5005273;28;20417;-72
2022/01/31 11:36:52;;;;;;;5.80;2.97;;;5.40;99.90;;;;;;5002658;28;20914;-73
2022/01/31 11:39:18;;;;;;;7.60;3.87;;;5.50;99.90;;;;;;4998069;28;20500;-72
2022/01/31 11:41:46;;;;;;;3.53;2.30;;;5.60;99.90;;;;;;4995192;28;20184;-72
2022/01/31 11:44:26;;;;;;;6.00;2.83;;;5.60;99.90;;;;;;4992970;28;20209;-72
2022/01/31 11:46:55;;;;;;;15.47;3.60;;;5.60;99.90;;;;;;4992764;28;20502;-72
2022/01/31 11:49:21;;;;;;;13.57;3.33;;;5.70;99.90;;;;;;4992901;28;20526;-72
2022/01/31 11:52:07;;;;;;;4.57;2.00;;;5.60;99.90;;;;;;4992729;28;20544;-71
2022/01/31 11:54:36;;;;;;;8.00;2.90;;;5.40;99.90;;;;;;5006725;28;20258;-72
2022/01/31 11:57:12;;;;;;;3.20;1.60;;;5.40;99.90;;;;;;5012463;28;20414;-72
2022/01/31 11:59:40;;;;;;;2.07;1.90;;;5.30;99.90;;;;;;5013027;28;20839;-72
2022/01/31 12:02:06;;;;;;;5.17;1.80;;;5.50;99.90;;;;;;5012932;28;20435;-73
2022/01/31 12:04:33;;;;;;;5.40;2.87;;;5.50;99.90;;;;;;5002486;28;20462;-72
2022/01/31 12:06:59;;;;;;;5.27;1.97;;;5.90;99.90;;;;;;5004024;28;20427;-73
2022/01/31 12:09:28;;;;;;;2.97;2.73;;;6.00;99.90;;;;;;5012387;28;20568;-72
2022/01/31 12:12:03;;;;;;;8.33;3.30;;;6.10;99.90;;;;;;5002323;28;20605;-74
2022/01/31 12:14:44;;;;;;;3.83;2.83;;;6.00;99.90;;;;;;5010921;28;20931;-73
2022/01/31 12:17:56;;;;;;;5.07;3.10;;;6.00;99.90;;;;;;5012110;28;20415;-72
2022/01/31 12:23:39;;;;;;;8.23;2.03;;;6.30;99.90;;;;;;4992348;28;20987;-72
2022/01/31 12:26:32;;;;;;;2.50;2.30;;;6.00;99.90;;;;;;4992034;28;20423;-72
2022/01/31 12:29:20;;;;;;;6.00;2.70;;;5.90;99.90;;;;;;4992040;28;20432;-73
2022/01/31 12:31:54;;;;;;;2.40;1.47;;;5.90;99.90;;;;;;4994524;28;20468;-73
2022/01/31 12:34:20;;;;;;;4.17;2.63;;;6.10;99.90;;;;;;4996175;28;20940;-73
2022/01/31 12:36:50;;;;;;;4.13;3.83;;;6.00;99.90;;;;;;4996487;28;20440;-73
2022/01/31 12:39:28;;;;;;;3.00;1.90;;;6.10;99.90;;;;;;4995958;28;20453;-72
2022/01/31 12:42:03;;;;;;;17.70;7.40;;;6.20;99.90;;;;;;4995027;28;20416;-73
2022/01/31 12:44:32;;;;;;;10.20;3.63;;;6.00;99.90;;;;;;4996202;28;20774;-72
2022/01/31 12:47:15;;;;;;;5.90;2.90;;;5.80;99.90;;;;;;4996103;28;20910;-73
2022/01/31 12:49:44;;;;;;;6.23;4.73;;;5.70;99.90;;;;;;4996227;28;20981;-73
2022/01/31 12:52:10;;;;;;;5.83;2.53;;;5.80;99.90;;;;;;4995764;28;20554;-72
2022/01/31 12:54:38;;;;;;;7.87;2.40;;;5.80;99.90;;;;;;4996205;28;20820;-72
2022/01/31 12:57:10;;;;;;;10.47;5.87;;;5.80;99.90;;;;;;4995802;28;20416;-72
2022/01/31 12:59:39;;;;;;;9.17;3.77;;;5.60;99.90;;;;;;4995899;28;20440;-73
2022/01/31 13:02:08;;;;;;;5.13;2.27;;;5.60;99.90;;;;;;4996173;28;20408;-73
2022/01/31 13:04:34;;;;;;;6.67;3.47;;;5.60;99.90;;;;;;5013300;28;20431;-72
2022/01/31 13:07:06;;;;;;;3.67;2.13;;;5.60;99.90;;;;;;5011740;28;20420;-72
2022/01/31 13:09:38;;;;;;;6.77;4.00;;;5.50;99.90;;;;;;5006913;28;20466;-74
2022/01/31 13:12:12;;;;;;;5.17;3.00;;;5.70;99.90;;;;;;5012559;28;20501;-72
2022/01/31 13:14:41;;;;;;;4.30;3.90;;;5.80;99.90;;;;;;5015299;28;20503;-72
2022/01/31 13:17:16;;;;;;;6.60;3.93;;;5.80;99.90;;;;;;5015090;28;20505;-72
2022/01/31 13:19:52;;;;;;;5.67;2.50;;;5.90;99.90;;;;;;5015405;28;20435;-73
2022/01/31 13:22:31;;;;;;;7.40;3.50;;;5.90;99.90;;;;;;5006703;28;20422;-72
2022/01/31 13:25:03;;;;;;;8.87;5.13;;;5.80;99.90;;;;;;4995198;28;20470;-71
2022/01/31 13:27:32;;;;;;;6.40;3.00;;;5.70;99.90;;;;;;4995224;28;20438;-71